Time;durP1;ratioP1;P1;durP2;ratioP2;P2;SDS_P1;SDS_P2;PMS_P1;PMS_P2;Temp;Humidity;BMP_temperature;BMP_pressure;BME280_temperature;BME280_humidity;BME280_pressure;Samples;Min_cycle;Max_cycle;Signal;HPM_P1;HPM_P2
2021/06/18 00:02:13;;;;;;;7.83;7.13;;;24.20;33.50;;;;;;4974779;28;20637;-77
2021/06/18 00:04:39;;;;;;;7.90;7.40;;;24.20;33.60;;;;;;4974618;28;20318;-77
2021/06/18 00:07:05;;;;;;;8.60;7.80;;;24.20;33.60;;;;;;4974426;28;20194;-77
2021/06/18 00:09:30;;;;;;;8.63;8.10;;;24.20;33.50;;;;;;4975115;28;20167;-77
2021/06/18 00:11:56;;;;;;;8.07;7.40;;;24.20;33.50;;;;;;4974840;28;20840;-78
2021/06/18 00:14:21;;;;;;;8.30;7.70;;;24.20;33.50;;;;;;4974619;28;20217;-78
2021/06/18 00:16:48;;;;;;;8.27;7.77;;;24.20;33.50;;;;;;4974114;28;20199;-77
2021/06/18 00:19:13;;;;;;;7.70;7.20;;;24.20;33.50;;;;;;4973246;28;20185;-78
2021/06/18 00:21:39;;;;;;;8.23;7.73;;;24.20;33.60;;;;;;4973974;28;20414;-77
2021/06/18 00:24:05;;;;;;;8.23;7.67;;;24.20;33.50;;;;;;4974581;28;20198;-77
2021/06/18 00:26:31;;;;;;;9.20;8.60;;;24.20;33.50;;;;;;4974262;28;20280;-77
2021/06/18 00:28:56;;;;;;;7.57;7.07;;;24.20;33.50;;;;;;4972065;28;21052;-77
2021/06/18 00:31:22;;;;;;;7.97;7.40;;;24.20;33.50;;;;;;4974270;28;20262;-78
2021/06/18 00:33:47;;;;;;;7.90;7.40;;;24.20;33.60;;;;;;4974202;28;20534;-78
2021/06/18 00:36:13;;;;;;;7.93;7.43;;;24.20;33.60;;;;;;4973611;28;20175;-77
2021/06/18 00:38:38;;;;;;;9.07;8.43;;;24.20;33.60;;;;;;4972330;28;20179;-78
2021/06/18 00:41:05;;;;;;;8.23;7.73;;;24.20;33.50;;;;;;4972355;28;20174;-77
2021/06/18 00:43:30;;;;;;;8.17;7.57;;;24.20;33.60;;;;;;4973228;28;20191;-77
2021/06/18 00:45:56;;;;;;;7.37;6.97;;;24.20;33.50;;;;;;4973252;28;21076;-78
2021/06/18 00:48:24;;;;;;;7.67;7.17;;;24.20;33.60;;;;;;4973575;28;20182;-78
2021/06/18 00:50:49;;;;;;;7.73;7.20;;;24.20;33.70;;;;;;4972776;28;20174;-75
2021/06/18 00:53:15;;;;;;;8.13;7.67;;;24.20;33.70;;;;;;4972956;28;20411;-76
2021/06/18 00:55:41;;;;;;;8.10;7.60;;;24.20;33.60;;;;;;4972229;28;20175;-78
2021/06/18 00:58:08;;;;;;;8.07;7.57;;;24.20;33.70;;;;;;4971476;28;20510;-79
2021/06/18 01:00:34;;;;;;;8.30;7.80;;;24.20;33.80;;;;;;4970784;28;20476;-76
2021/06/18 01:02:59;;;;;;;8.60;7.90;;;24.20;33.80;;;;;;4972371;28;20883;-76
2021/06/18 01:05:26;;;;;;;8.23;7.53;;;24.20;34.00;;;;;;4970897;28;20881;-78
2021/06/18 01:08:24;;;;;;;7.40;7.00;;;24.20;34.00;;;;;;4971824;28;20171;-77
2021/06/18 01:11:01;;;;;;;7.63;7.13;;;24.20;34.00;;;;;;4973283;28;20493;-78
2021/06/18 01:13:41;;;;;;;8.37;7.80;;;24.20;34.00;;;;;;4974833;28;20430;-78
2021/06/18 01:16:11;;;;;;;8.20;7.63;;;24.20;33.90;;;;;;4974521;28;20433;-79
2021/06/18 01:18:44;;;;;;;8.53;7.93;;;24.20;34.00;;;;;;4975967;28;20402;-79
2021/06/18 01:21:26;;;;;;;8.13;7.53;;;24.20;34.00;;;;;;4974125;28;20414;-78
2021/06/18 01:24:00;;;;;;;7.90;7.40;;;24.20;34.00;;;;;;4975013;28;21008;-77
2021/06/18 01:26:47;;;;;;;7.63;7.13;;;24.10;34.00;;;;;;4975182;28;21074;-79
2021/06/18 01:29:13;;;;;;;8.20;7.70;;;24.20;34.10;;;;;;4975139;28;20468;-78
2021/06/18 01:31:45;;;;;;;7.97;7.47;;;24.10;34.00;;;;;;4975481;28;20410;-78
2021/06/18 01:34:27;;;;;;;7.60;7.10;;;24.10;34.00;;;;;;4975601;28;20221;-78
2021/06/18 01:36:59;;;;;;;8.43;7.73;;;24.10;34.00;;;;;;4974403;28;20753;-78
2021/06/18 01:39:25;;;;;;;8.03;7.33;;;24.10;34.10;;;;;;4975609;28;20429;-78
2021/06/18 01:41:52;;;;;;;8.03;7.40;;;24.10;34.10;;;;;;4978697;28;20789;-78
2021/06/18 01:44:20;;;;;;;8.27;7.77;;;24.20;34.30;;;;;;4978951;28;20454;-79
2021/06/18 01:46:48;;;;;;;8.60;8.00;;;24.10;34.20;;;;;;4978877;28;20410;-78
2021/06/18 01:49:13;;;;;;;8.93;8.30;;;24.20;34.30;;;;;;4977612;28;20418;-79
2021/06/18 01:51:41;;;;;;;8.70;8.10;;;24.10;34.20;;;;;;4978612;28;20446;-77
2021/06/18 01:54:08;;;;;;;9.27;7.47;;;24.10;34.30;;;;;;4977297;28;20982;-78
2021/06/18 01:56:37;;;;;;;7.60;7.20;;;24.10;34.30;;;;;;4978259;28;20429;-79
2021/06/18 01:59:04;;;;;;;8.03;7.43;;;24.10;34.30;;;;;;4978494;28;20436;-78
2021/06/18 02:01:57;;;;;;;8.00;7.50;;;24.10;34.30;;;;;;4977478;28;20430;-77
2021/06/18 02:04:23;;;;;;;8.00;7.50;;;24.10;34.40;;;;;;4976696;28;21145;-78
2021/06/18 02:06:50;;;;;;;8.57;8.00;;;24.10;34.40;;;;;;4977225;28;20488;-78
2021/06/18 02:09:17;;;;;;;8.13;7.53;;;24.10;34.40;;;;;;4979051;28;20175;-78
2021/06/18 02:11:43;;;;;;;7.87;7.37;;;24.10;34.40;;;;;;4978384;28;20414;-78
2021/06/18 02:14:15;;;;;;;8.47;7.93;;;24.10;34.50;;;;;;4977060;28;20434;-78
2021/06/18 02:16:44;;;;;;;8.57;8.03;;;24.10;34.50;;;;;;4977917;28;20441;-78
2021/06/18 02:19:14;;;;;;;7.60;7.10;;;24.10;34.50;;;;;;4978352;28;20429;-78
2021/06/18 02:21:40;;;;;;;7.27;6.87;;;24.10;34.50;;;;;;4976830;28;20418;-78
2021/06/18 02:24:07;;;;;;;8.30;7.70;;;24.10;34.50;;;;;;4977774;28;21003;-77
2021/06/18 02:26:33;;;;;;;8.17;7.63;;;24.10;34.40;;;;;;4977929;28;20413;-78
2021/06/18 02:28:59;;;;;;;8.83;8.10;;;24.10;34.50;;;;;;4977720;28;20410;-79
2021/06/18 02:31:25;;;;;;;7.03;6.53;;;24.10;34.60;;;;;;4977683;28;20262;-77
2021/06/18 02:33:52;;;;;;;7.77;7.37;;;24.10;34.50;;;;;;4976604;28;20195;-77
2021/06/18 02:36:18;;;;;;;8.57;7.97;;;24.10;34.50;;;;;;4976916;28;20420;-79
2021/06/18 02:38:44;;;;;;;7.97;7.47;;;24.10;34.50;;;;;;4976531;28;20450;-79
2021/06/18 02:41:11;;;;;;;8.63;7.93;;;24.10;34.50;;;;;;4976787;28;20941;-79
2021/06/18 02:43:37;;;;;;;8.00;7.50;;;24.10;34.60;;;;;;4976117;28;20849;-79
2021/06/18 02:46:02;;;;;;;7.53;7.07;;;24.10;34.60;;;;;;4977443;28;20472;-79
2021/06/18 02:48:37;;;;;;;7.77;7.37;;;24.10;34.60;;;;;;4977465;28;20468;-78
2021/06/18 02:51:09;;;;;;;8.07;7.47;;;24.10;34.60;;;;;;4976975;28;20181;-78
2021/06/18 02:54:10;;;;;;;7.27;6.60;;;24.10;34.60;;;;;;4976396;28;20461;-79
2021/06/18 02:56:45;;;;;;;7.60;7.10;;;24.10;34.70;;;;;;4969726;28;20457;-76
2021/06/18 02:59:25;;;;;;;8.07;7.57;;;24.10;34.70;;;;;;4976990;28;20409;-79
2021/06/18 03:01:53;;;;;;;7.30;6.90;;;24.10;34.60;;;;;;4976729;28;20406;-78
2021/06/18 03:04:22;;;;;;;7.80;7.30;;;24.10;34.70;;;;;;4976252;28;20458;-78
2021/06/18 03:07:09;;;;;;;8.10;7.60;;;24.10;34.80;;;;;;4977132;28;20775;-78
2021/06/18 03:09:39;;;;;;;7.50;7.10;;;24.10;34.80;;;;;;4975050;28;20418;-77
2021/06/18 03:12:08;;;;;;;8.83;8.23;;;24.00;34.70;;;;;;4974574;28;20414;-78
2021/06/18 03:14:36;;;;;;;8.00;7.60;;;24.10;34.80;;;;;;4976055;28;20528;-78
2021/06/18 03:17:05;;;;;;;7.77;7.27;;;24.10;34.80;;;;;;4975356;28;20441;-77
2021/06/18 03:19:35;;;;;;;7.90;7.50;;;24.00;34.70;;;;;;4976148;28;20418;-77
2021/06/18 03:22:03;;;;;;;7.87;7.47;;;24.10;34.80;;;;;;4977436;28;20505;-78
2021/06/18 03:24:30;;;;;;;7.77;7.33;;;24.10;34.70;;;;;;4976956;28;20453;-78
2021/06/18 03:26:58;;;;;;;7.97;7.40;;;24.00;34.60;;;;;;4976567;28;20410;-76
2021/06/18 03:29:25;;;;;;;8.80;8.17;;;24.10;34.70;;;;;;4975059;28;20442;-78
2021/06/18 03:31:53;;;;;;;7.37;6.97;;;24.00;34.60;;;;;;4975646;28;20430;-79
2021/06/18 03:34:19;;;;;;;8.03;7.53;;;24.00;35.30;;;;;;4974813;28;20500;-77
2021/06/18 03:36:46;;;;;;;7.60;7.10;;;24.10;34.70;;;;;;4974744;28;20788;-76
2021/06/18 03:39:11;;;;;;;7.40;7.00;;;24.00;34.50;;;;;;4975576;28;20417;-78
2021/06/18 03:41:37;;;;;;;7.83;7.40;;;24.00;34.60;;;;;;4975574;28;20441;-77
2021/06/18 03:44:03;;;;;;;7.50;6.90;;;24.10;34.70;;;;;;4975482;28;20230;-76
2021/06/18 03:46:30;;;;;;;7.53;7.13;;;24.00;34.60;;;;;;4974576;28;20175;-78
2021/06/18 03:48:58;;;;;;;7.00;6.60;;;24.00;34.60;;;;;;4974810;28;20414;-78
2021/06/18 03:51:24;;;;;;;7.83;7.33;;;24.00;34.60;;;;;;4975032;28;20937;-77
2021/06/18 03:53:49;;;;;;;7.80;7.30;;;24.00;34.50;;;;;;4974823;28;20469;-78
2021/06/18 03:56:17;;;;;;;7.77;7.27;;;24.00;35.40;;;;;;4973266;28;20541;-78
2021/06/18 03:58:44;;;;;;;8.30;7.50;;;24.00;34.70;;;;;;4974323;28;20181;-77
2021/06/18 04:02:03;;;;;;;8.13;7.63;;;24.00;35.60;;;;;;4974202;28;20413;-78
2021/06/18 04:04:51;;;;;;;7.93;7.33;;;24.00;35.60;;;;;;4940513;28;20477;-78
2021/06/18 04:07:17;;;;;;;9.63;8.73;;;24.00;35.90;;;;;;4973306;28;20433;-77
2021/06/18 04:09:43;;;;;;;8.30;7.80;;;24.10;35.90;;;;;;4972875;28;20897;-79
2021/06/18 04:12:12;;;;;;;8.40;7.80;;;24.10;35.80;;;;;;4972301;28;20436;-79
2021/06/18 04:14:38;;;;;;;8.67;8.17;;;24.10;35.80;;;;;;4972988;28;20858;-79
2021/06/18 04:17:06;;;;;;;7.97;7.50;;;24.10;35.80;;;;;;4972729;28;20442;-79
2021/06/18 04:19:36;;;;;;;8.73;7.90;;;24.10;35.60;;;;;;4972777;28;20190;-78
2021/06/18 04:22:05;;;;;;;7.87;7.30;;;24.10;35.50;;;;;;4972430;28;20422;-78
2021/06/18 04:24:32;;;;;;;8.60;8.00;;;24.10;35.40;;;;;;4972252;28;20470;-78
2021/06/18 04:26:59;;;;;;;9.03;8.23;;;24.10;35.60;;;;;;4971890;28;20418;-78
2021/06/18 04:29:25;;;;;;;9.17;8.37;;;24.00;35.70;;;;;;4973002;28;20440;-78
2021/06/18 04:31:53;;;;;;;8.77;7.87;;;24.00;35.70;;;;;;4971150;28;20422;-79
2021/06/18 04:34:19;;;;;;;8.37;7.83;;;24.00;35.60;;;;;;4955473;28;20210;-77
2021/06/18 04:39:43;;;;;;;9.47;8.77;;;24.00;35.50;;;;;;4976003;28;20484;-80
2021/06/18 04:42:20;;;;;;;9.10;8.40;;;24.00;35.50;;;;;;4977782;28;20493;-79
2021/06/18 04:44:46;;;;;;;8.70;8.00;;;24.00;35.30;;;;;;4975740;28;20198;-79
2021/06/18 04:47:12;;;;;;;8.50;7.87;;;23.90;35.30;;;;;;4977754;28;20927;-79
2021/06/18 04:49:37;;;;;;;9.43;8.70;;;23.90;35.20;;;;;;4975136;28;20549;-78
2021/06/18 04:52:05;;;;;;;9.47;8.87;;;23.90;35.40;;;;;;4976828;28;20189;-80
2021/06/18 04:54:31;;;;;;;8.27;7.83;;;23.90;35.60;;;;;;4976627;28;20198;-81
2021/06/18 04:56:58;;;;;;;8.93;8.40;;;23.90;35.50;;;;;;4975516;28;20432;-79
2021/06/18 04:59:24;;;;;;;8.63;8.03;;;24.00;35.50;;;;;;4976677;28;20861;-80
2021/06/18 05:01:51;;;;;;;8.90;8.20;;;23.90;35.40;;;;;;4975537;28;20426;-80
2021/06/18 05:04:17;;;;;;;8.47;7.80;;;23.90;35.30;;;;;;4945235;28;20466;-79
2021/06/18 05:06:43;;;;;;;8.83;8.17;;;23.90;35.30;;;;;;4959638;28;20505;-80
2021/06/18 05:09:24;;;;;;;8.87;8.37;;;24.00;35.20;;;;;;4976419;28;20568;-80
2021/06/18 05:11:50;;;;;;;9.07;8.37;;;23.90;35.70;;;;;;4974175;28;20217;-80
2021/06/18 05:14:17;;;;;;;9.87;9.27;;;23.90;34.90;;;;;;4976813;28;20438;-78
2021/06/18 05:16:43;;;;;;;10.27;9.47;;;23.90;34.70;;;;;;4974344;28;20528;-79
2021/06/18 05:19:10;;;;;;;9.97;9.37;;;23.90;34.90;;;;;;4975034;28;20920;-79
2021/06/18 05:21:36;;;;;;;9.50;8.80;;;23.90;34.90;;;;;;4975249;28;20437;-79
2021/06/18 05:24:02;;;;;;;9.30;8.70;;;23.90;34.90;;;;;;4974939;28;20437;-80
2021/06/18 05:26:31;;;;;;;9.60;8.90;;;23.90;35.00;;;;;;4975927;28;20179;-80
2021/06/18 05:29:05;;;;;;;9.63;8.90;;;23.90;35.00;;;;;;4976613;28;20406;-80
2021/06/18 05:31:52;;;;;;;9.90;9.10;;;23.90;35.10;;;;;;4975667;28;20436;-81
2021/06/18 05:34:18;;;;;;;9.90;9.13;;;23.90;35.00;;;;;;4976538;28;20485;-79
2021/06/18 05:36:45;;;;;;;10.50;9.70;;;23.90;35.10;;;;;;4975873;28;20426;-81
2021/06/18 05:39:12;;;;;;;15.00;10.73;;;23.90;35.40;;;;;;4973207;28;20821;-78
2021/06/18 05:41:37;;;;;;;12.57;11.13;;;23.90;35.40;;;;;;4974899;28;20421;-79
2021/06/18 05:44:03;;;;;;;11.43;10.40;;;23.90;35.60;;;;;;4978038;28;20466;-79
2021/06/18 05:46:31;;;;;;;14.13;10.00;;;23.90;35.40;;;;;;4975577;28;20185;-81
2021/06/18 05:48:57;;;;;;;12.60;10.33;;;24.00;35.60;;;;;;4958212;28;20221;-79
2021/06/18 05:51:23;;;;;;;14.60;10.93;;;24.00;35.60;;;;;;4974457;28;20501;-79
2021/06/18 05:53:48;;;;;;;12.43;9.80;;;24.00;35.40;;;;;;4973921;28;21220;-79
2021/06/18 05:56:14;;;;;;;11.40;9.47;;;24.00;35.50;;;;;;4973345;28;20701;-79
2021/06/18 05:58:39;;;;;;;10.07;9.27;;;24.00;35.50;;;;;;4972860;28;20266;-78
2021/06/18 06:01:05;;;;;;;9.90;9.00;;;24.00;35.10;;;;;;4973747;28;20555;-78
2021/06/18 06:03:30;;;;;;;10.30;9.17;;;24.00;35.00;;;;;;4972971;28;20195;-78
2021/06/18 06:05:56;;;;;;;9.27;8.57;;;24.00;35.00;;;;;;4973291;28;20549;-78
2021/06/18 06:08:22;;;;;;;8.87;8.17;;;24.00;34.50;;;;;;4974356;28;20171;-78
2021/06/18 06:10:49;;;;;;;9.83;8.83;;;24.00;34.40;;;;;;4974068;28;20561;-81
2021/06/18 06:13:18;;;;;;;17.23;10.20;;;24.10;34.70;;;;;;4973240;28;20242;-79
2021/06/18 06:15:44;;;;;;;10.73;8.97;;;24.10;34.90;;;;;;4973241;28;20472;-80
2021/06/18 06:18:09;;;;;;;9.37;8.57;;;24.10;35.00;;;;;;4975745;28;20414;-79
2021/06/18 06:20:35;;;;;;;7.97;7.47;;;24.10;34.90;;;;;;4974720;28;20662;-79
2021/06/18 06:23:00;;;;;;;8.33;7.70;;;24.10;34.80;;;;;;4974528;28;20194;-79
2021/06/18 06:25:26;;;;;;;9.50;8.80;;;24.10;34.80;;;;;;4974556;28;20203;-79
2021/06/18 06:27:52;;;;;;;9.90;8.90;;;24.10;34.80;;;;;;4975079;28;20194;-78
2021/06/18 06:30:17;;;;;;;8.97;8.37;;;24.10;34.80;;;;;;4976593;28;20186;-78
2021/06/18 06:32:43;;;;;;;9.37;8.50;;;24.10;35.00;;;;;;4972497;28;20185;-77
2021/06/18 06:35:09;;;;;;;10.30;8.20;;;24.10;35.00;;;;;;4972749;28;20213;-76
2021/06/18 06:37:35;;;;;;;9.67;8.97;;;24.10;34.90;;;;;;4974767;28;20179;-78
2021/06/18 06:40:00;;;;;;;10.27;9.53;;;24.10;34.90;;;;;;4975725;28;20420;-77
2021/06/18 06:42:26;;;;;;;9.80;8.80;;;24.20;35.10;;;;;;4975576;28;20237;-77
2021/06/18 06:44:51;;;;;;;12.60;9.63;;;24.10;35.00;;;;;;4975652;28;20221;-77
2021/06/18 06:47:17;;;;;;;16.93;9.43;;;24.10;35.10;;;;;;4976187;28;20170;-76
2021/06/18 06:49:44;;;;;;;10.70;9.80;;;24.10;35.30;;;;;;4977211;28;20648;-79
2021/06/18 06:52:10;;;;;;;55.10;49.63;;;24.10;35.10;;;;;;4976926;28;20234;-78
2021/06/18 06:54:35;;;;;;;224.93;202.60;;;24.20;35.40;;;;;;4976574;28;20438;-76
2021/06/18 06:57:01;;;;;;;123.67;110.80;;;24.20;35.20;;;;;;4975639;28;20207;-77
2021/06/18 06:59:31;;;;;;;84.33;75.97;;;24.10;35.30;;;;;;4976047;28;20274;-81
2021/06/18 07:01:56;;;;;;;43.23;38.87;;;24.20;35.60;;;;;;4976329;28;20270;-79
2021/06/18 07:04:22;;;;;;;42.30;33.73;;;24.20;35.50;;;;;;4975324;28;20604;-79
2021/06/18 07:06:48;;;;;;;29.03;24.00;;;24.20;35.50;;;;;;4974602;28;20171;-77
2021/06/18 07:09:15;;;;;;;26.73;24.23;;;24.20;35.60;;;;;;4976087;28;20255;-80
2021/06/18 07:11:40;;;;;;;25.90;23.20;;;24.20;35.30;;;;;;4959072;28;20333;-79
2021/06/18 07:14:06;;;;;;;26.67;24.23;;;24.20;35.30;;;;;;4973765;28;20528;-79
2021/06/18 07:16:31;;;;;;;22.30;20.03;;;24.20;35.70;;;;;;4971927;28;20434;-79
2021/06/18 07:18:57;;;;;;;23.53;21.33;;;24.20;35.50;;;;;;4976232;28;20205;-79
2021/06/18 07:21:23;;;;;;;18.97;16.80;;;24.20;35.70;;;;;;4976463;28;20167;-80
2021/06/18 07:23:48;;;;;;;18.90;17.20;;;24.20;35.40;;;;;;4974401;28;20281;-79
2021/06/18 07:26:15;;;;;;;21.53;19.50;;;24.20;35.60;;;;;;4976195;28;20181;-82
2021/06/18 07:28:41;;;;;;;21.63;19.33;;;24.20;35.60;;;;;;4976752;28;20189;-78
2021/06/18 07:31:07;;;;;;;18.70;16.90;;;24.20;35.70;;;;;;4975978;28;20437;-79
2021/06/18 07:33:39;;;;;;;16.50;14.90;;;24.20;35.60;;;;;;4976491;28;20457;-79
2021/06/18 07:36:05;;;;;;;15.40;14.13;;;24.20;35.70;;;;;;4974300;28;20175;-78
2021/06/18 07:38:31;;;;;;;16.60;14.57;;;24.20;35.80;;;;;;4972248;28;20484;-80
2021/06/18 07:41:02;;;;;;;13.30;12.10;;;24.20;36.00;;;;;;4975042;28;20233;-79
2021/06/18 07:43:28;;;;;;;13.20;12.00;;;24.20;35.90;;;;;;4974014;28;20872;-79
2021/06/18 07:45:53;;;;;;;13.93;12.60;;;24.20;35.80;;;;;;4974280;28;20461;-78
2021/06/18 07:48:27;;;;;;;12.93;11.83;;;24.20;35.80;;;;;;4972606;28;20181;-79
2021/06/18 07:51:00;;;;;;;13.80;12.50;;;24.20;35.90;;;;;;4972530;28;20187;-79
2021/06/18 07:53:29;;;;;;;13.60;12.50;;;24.20;36.00;;;;;;4955361;28;20496;-81
2021/06/18 07:56:04;;;;;;;14.03;12.93;;;24.20;36.10;;;;;;4972020;28;20436;-80
2021/06/18 07:58:33;;;;;;;11.67;10.73;;;24.20;36.10;;;;;;4973806;28;20426;-80
2021/06/18 08:01:11;;;;;;;13.00;11.90;;;24.20;36.10;;;;;;4971109;28;20422;-80
2021/06/18 08:03:37;;;;;;;11.50;10.60;;;24.10;35.90;;;;;;4972714;28;20477;-80
2021/06/18 08:06:30;;;;;;;10.33;9.37;;;24.20;35.90;;;;;;4971762;28;20458;-81
2021/06/18 08:09:31;;;;;;;12.83;11.47;;;24.10;35.80;;;;;;4973295;28;20192;-80
2021/06/18 08:11:58;;;;;;;11.27;10.47;;;24.10;35.80;;;;;;4957226;28;20441;-80
2021/06/18 08:14:24;;;;;;;10.97;10.17;;;24.10;35.80;;;;;;4958641;28;21041;-80
2021/06/18 08:16:50;;;;;;;11.13;10.33;;;24.10;35.80;;;;;;4973651;28;20466;-80
2021/06/18 08:19:18;;;;;;;11.80;10.93;;;24.10;35.80;;;;;;4976177;28;20421;-80
2021/06/18 08:21:46;;;;;;;12.67;11.67;;;24.10;35.90;;;;;;4975704;28;20465;-80
2021/06/18 08:24:16;;;;;;;11.23;10.43;;;24.10;35.80;;;;;;4958920;28;20461;-82
2021/06/18 08:26:52;;;;;;;11.63;10.80;;;24.10;35.80;;;;;;4975120;28;20414;-79
2021/06/18 08:29:18;;;;;;;10.17;9.47;;;24.10;35.80;;;;;;4975185;28;20517;-81
2021/06/18 08:31:59;;;;;;;11.50;10.70;;;24.10;36.50;;;;;;4974222;28;20446;-79
2021/06/18 08:34:26;;;;;;;11.03;10.33;;;24.00;35.70;;;;;;4965141;28;20206;-79
2021/06/18 08:36:54;;;;;;;11.90;10.90;;;24.10;35.80;;;;;;4973188;28;20422;-80
2021/06/18 08:39:20;;;;;;;10.20;9.40;;;24.10;35.70;;;;;;4958174;28;20449;-80
2021/06/18 08:41:50;;;;;;;11.70;10.60;;;24.10;35.70;;;;;;4976915;28;20552;-80
2021/06/18 08:44:23;;;;;;;9.33;8.63;;;24.10;35.70;;;;;;4974640;28;20453;-78
2021/06/18 08:46:49;;;;;;;10.30;9.60;;;24.10;35.70;;;;;;4974175;28;20913;-79
2021/06/18 08:49:14;;;;;;;10.97;9.97;;;24.10;35.70;;;;;;4975250;28;20681;-79
2021/06/18 08:52:00;;;;;;;10.77;10.07;;;24.10;35.70;;;;;;4973432;28;20171;-78
2021/06/18 08:54:41;;;;;;;10.20;9.50;;;24.10;35.60;;;;;;4958464;28;20453;-78
2021/06/18 08:57:08;;;;;;;18.73;16.80;;;24.10;35.60;;;;;;4974886;28;20421;-79
2021/06/18 08:59:33;;;;;;;21.93;18.53;;;24.10;36.10;;;;;;4975025;28;20525;-78
2021/06/18 09:01:59;;;;;;;20.63;18.60;;;24.20;36.40;;;;;;4976307;28;20614;-79
2021/06/18 09:04:24;;;;;;;17.00;15.50;;;24.20;36.50;;;;;;4976428;28;20240;-79
2021/06/18 09:06:58;;;;;;;15.40;14.03;;;24.30;36.20;;;;;;4975276;28;20734;-78
2021/06/18 09:09:25;;;;;;;15.20;13.70;;;24.30;36.10;;;;;;4977783;28;20475;-77
2021/06/18 09:11:56;;;;;;;16.53;14.83;;;24.30;36.80;;;;;;4974050;28;21164;-78
2021/06/18 09:14:32;;;;;;;14.43;13.13;;;24.30;36.50;;;;;;4972953;28;20446;-77
2021/06/18 09:17:09;;;;;;;14.57;13.27;;;24.30;36.40;;;;;;4974909;28;20433;-77
2021/06/18 09:19:37;;;;;;;14.17;12.93;;;24.40;36.60;;;;;;4976032;28;20896;-77
2021/06/18 09:22:04;;;;;;;12.60;11.80;;;24.40;36.20;;;;;;4975062;28;20492;-77
2021/06/18 09:24:32;;;;;;;13.93;12.70;;;24.40;36.20;;;;;;4977040;28;20469;-78
2021/06/18 09:26:58;;;;;;;13.17;11.97;;;24.40;36.10;;;;;;4975725;28;20406;-78
2021/06/18 09:29:26;;;;;;;12.77;11.70;;;24.50;36.90;;;;;;4976835;28;20405;-78
2021/06/18 09:31:56;;;;;;;13.70;12.80;;;24.50;36.20;;;;;;4973618;28;20850;-78
2021/06/18 09:37:19;;;;;;;12.83;11.80;;;24.50;36.00;;;;;;4973840;28;20401;-79
2021/06/18 09:40:01;;;;;;;13.23;12.13;;;24.50;36.70;;;;;;4974556;28;20440;-78
2021/06/18 09:42:26;;;;;;;12.73;11.83;;;24.50;35.90;;;;;;4976921;28;21155;-78
2021/06/18 09:45:32;;;;;;;12.50;11.50;;;24.50;35.70;;;;;;4975031;28;20548;-77
2021/06/18 09:48:20;;;;;;;13.07;12.07;;;24.50;35.70;;;;;;4974057;28;20258;-75
2021/06/18 09:50:59;;;;;;;13.00;12.00;;;24.50;35.70;;;;;;4975134;28;20975;-77
2021/06/18 09:53:26;;;;;;;13.53;12.53;;;24.50;35.80;;;;;;4975323;28;20429;-79
2021/06/18 09:56:04;;;;;;;12.63;11.73;;;24.50;35.90;;;;;;4974500;28;20429;-77
2021/06/18 09:58:32;;;;;;;12.70;11.80;;;24.50;35.90;;;;;;4973555;28;20549;-78
2021/06/18 10:01:24;;;;;;;12.73;11.73;;;24.60;35.90;;;;;;4975181;28;21119;-78
2021/06/18 10:04:04;;;;;;;12.90;11.90;;;24.60;35.90;;;;;;4979036;28;20448;-78
2021/06/18 10:06:31;;;;;;;12.40;11.50;;;24.60;35.80;;;;;;4979098;28;20948;-76
2021/06/18 10:08:58;;;;;;;12.60;11.80;;;24.60;35.70;;;;;;4977223;28;20918;-78
2021/06/18 10:11:24;;;;;;;13.07;12.10;;;24.70;35.70;;;;;;4977952;28;20428;-77
2021/06/18 10:13:52;;;;;;;12.10;11.30;;;24.70;35.60;;;;;;4977813;28;20448;-77
2021/06/18 10:16:20;;;;;;;12.27;11.37;;;24.70;35.40;;;;;;4978172;28;20433;-79
2021/06/18 10:18:46;;;;;;;13.17;11.97;;;24.70;35.50;;;;;;4978005;28;20417;-78
2021/06/18 10:21:11;;;;;;;12.27;11.27;;;24.70;35.30;;;;;;4977511;28;20413;-77
2021/06/18 10:23:38;;;;;;;12.13;11.03;;;24.70;35.10;;;;;;4977690;28;20222;-77
2021/06/18 10:26:08;;;;;;;12.20;11.20;;;24.70;35.10;;;;;;4977337;28;20233;-78
2021/06/18 10:28:34;;;;;;;11.47;10.60;;;24.70;35.00;;;;;;4975463;28;20434;-76
2021/06/18 10:31:02;;;;;;;13.03;11.83;;;24.70;34.90;;;;;;4977662;28;20761;-78
2021/06/18 10:33:28;;;;;;;12.07;11.10;;;24.80;34.80;;;;;;4975651;28;20470;-78
2021/06/18 10:36:07;;;;;;;11.50;10.70;;;24.80;34.10;;;;;;4977057;28;20456;-78
2021/06/18 10:38:41;;;;;;;11.70;10.80;;;24.80;34.30;;;;;;4975915;28;20234;-78
2021/06/18 10:41:12;;;;;;;11.07;10.23;;;24.80;34.10;;;;;;4976099;28;20472;-78
2021/06/18 10:43:45;;;;;;;11.30;10.60;;;24.80;34.10;;;;;;4976584;28;20800;-77
2021/06/18 10:46:14;;;;;;;11.63;10.80;;;24.80;34.30;;;;;;4976125;28;20532;-77
2021/06/18 10:48:52;;;;;;;12.87;11.80;;;24.80;34.40;;;;;;4975436;28;20453;-79
2021/06/18 10:51:35;;;;;;;12.77;11.83;;;24.80;34.10;;;;;;4974856;28;20933;-78
2021/06/18 10:54:04;;;;;;;12.23;11.20;;;24.80;34.10;;;;;;4974979;28;20529;-79
2021/06/18 10:56:45;;;;;;;12.87;12.00;;;24.80;34.10;;;;;;4974488;28;20430;-78
2021/06/18 10:59:26;;;;;;;12.83;11.70;;;24.80;34.10;;;;;;4974957;28;20504;-79
2021/06/18 11:01:53;;;;;;;12.50;11.70;;;24.80;34.10;;;;;;4974510;28;20425;-78
2021/06/18 11:04:44;;;;;;;10.70;10.10;;;24.80;34.10;;;;;;4958241;28;20469;-78
2021/06/18 11:07:30;;;;;;;12.20;11.50;;;24.90;33.30;;;;;;4973725;28;20414;-79
2021/06/18 11:10:12;;;;;;;10.80;10.10;;;24.90;33.40;;;;;;4970985;28;20426;-78
2021/06/18 11:13:00;;;;;;;11.07;10.27;;;24.90;32.90;;;;;;4954787;28;20478;-79
2021/06/18 11:15:28;;;;;;;15.50;11.20;;;24.90;33.00;;;;;;4953883;29;20501;-79
2021/06/18 11:18:16;;;;;;;10.60;10.00;;;24.90;33.00;;;;;;4972173;28;20449;-78
2021/06/18 11:21:10;;;;;;;10.50;9.80;;;24.90;32.60;;;;;;4974964;28;20983;-78
2021/06/18 11:23:58;;;;;;;10.70;10.00;;;24.90;31.90;;;;;;4973827;28;20489;-79
2021/06/18 11:26:25;;;;;;;10.43;9.93;;;24.90;31.70;;;;;;4957631;28;21026;-79
2021/06/18 11:28:53;;;;;;;10.10;9.30;;;24.90;31.40;;;;;;4974757;28;20457;-79
2021/06/18 11:31:41;;;;;;;9.60;8.90;;;24.90;31.50;;;;;;4979417;28;20418;-79
2021/06/18 11:34:25;;;;;;;10.33;9.57;;;24.90;31.40;;;;;;4979896;28;21000;-78
2021/06/18 11:36:52;;;;;;;10.07;9.27;;;24.90;30.50;;;;;;4977605;28;20417;-79
2021/06/18 11:39:20;;;;;;;9.33;8.63;;;24.90;29.70;;;;;;4977471;28;20429;-78
2021/06/18 11:41:58;;;;;;;9.33;8.83;;;24.90;28.70;;;;;;4961385;28;20450;-78
2021/06/18 11:44:28;;;;;;;9.73;9.13;;;25.00;29.00;;;;;;4976083;28;21067;-78
2021/06/18 11:46:57;;;;;;;8.37;7.97;;;24.90;29.10;;;;;;4978687;28;20430;-79
2021/06/18 11:49:44;;;;;;;9.00;8.50;;;25.00;29.30;;;;;;4978574;28;20521;-80
2021/06/18 11:52:21;;;;;;;8.37;7.87;;;24.90;29.30;;;;;;4963680;28;20430;-79
2021/06/18 11:55:11;;;;;;;9.23;8.43;;;25.00;29.00;;;;;;4992558;28;20442;-79
2021/06/18 11:58:24;;;;;;;9.23;8.73;;;25.00;28.70;;;;;;4977915;28;20438;-79
2021/06/18 12:01:56;;;;;;;9.20;8.70;;;25.00;28.80;;;;;;4979500;28;20485;-78
2021/06/18 12:04:36;;;;;;;10.63;8.70;;;25.00;27.70;;;;;;4979854;28;20469;-78
2021/06/18 12:07:11;;;;;;;8.73;8.13;;;25.10;27.70;;;;;;4975616;28;20426;-78
2021/06/18 12:09:41;;;;;;;10.10;9.40;;;25.00;27.80;;;;;;4975313;28;20418;-77
2021/06/18 12:12:08;;;;;;;8.77;8.17;;;25.00;28.00;;;;;;4975799;28;20410;-78
2021/06/18 12:14:45;;;;;;;9.83;9.23;;;25.00;28.40;;;;;;4976338;28;21060;-77
2021/06/18 12:17:11;;;;;;;9.23;8.63;;;25.00;28.60;;;;;;4977604;28;20446;-79
2021/06/18 12:19:43;;;;;;;9.43;8.63;;;25.00;28.70;;;;;;4975742;28;20492;-79
2021/06/18 12:22:17;;;;;;;10.73;9.97;;;25.00;28.50;;;;;;4975317;28;20246;-77
2021/06/18 12:24:52;;;;;;;9.60;9.00;;;25.00;28.70;;;;;;4976218;28;20466;-78
2021/06/18 12:27:45;;;;;;;9.50;8.87;;;25.00;28.80;;;;;;4974073;28;20513;-78
2021/06/18 12:30:18;;;;;;;9.77;9.17;;;25.00;28.90;;;;;;4971406;28;21152;-79
2021/06/18 12:32:46;;;;;;;9.10;8.50;;;25.00;29.00;;;;;;4977222;28;20418;-80
2021/06/18 12:35:15;;;;;;;9.57;8.87;;;25.10;28.70;;;;;;4973087;28;20461;-78
2021/06/18 12:37:47;;;;;;;10.07;9.10;;;25.10;28.60;;;;;;4973000;28;20426;-79
2021/06/18 12:40:15;;;;;;;9.87;9.27;;;25.10;28.60;;;;;;4973248;28;20532;-78
2021/06/18 12:42:45;;;;;;;8.97;8.47;;;25.10;28.60;;;;;;4972899;28;20448;-77
2021/06/18 12:45:14;;;;;;;9.37;8.80;;;25.10;28.80;;;;;;4972655;28;20473;-79
2021/06/18 12:47:43;;;;;;;9.00;8.40;;;25.10;28.50;;;;;;4972625;28;20800;-78
2021/06/18 12:50:43;;;;;;;9.80;9.20;;;25.10;28.30;;;;;;4972452;28;20421;-79
2021/06/18 12:53:14;;;;;;;10.17;9.57;;;25.10;28.60;;;;;;4974366;28;20413;-78
2021/06/18 12:55:50;;;;;;;8.93;8.43;;;25.10;28.80;;;;;;4973065;28;20413;-77
2021/06/18 12:58:17;;;;;;;10.37;9.60;;;25.10;28.80;;;;;;4972649;28;20434;-78
2021/06/18 13:00:55;;;;;;;9.57;8.90;;;25.10;28.60;;;;;;4974172;28;20406;-78
2021/06/18 13:03:41;;;;;;;10.03;9.30;;;25.10;28.60;;;;;;4973484;28;20476;-80